Time;durP1;ratioP1;P1;durP2;ratioP2;P2;SDS_P1;SDS_P2;PMS_P1;PMS_P2;Temp;Humidity;BMP_temperature;BMP_pressure;BME280_temperature;BME280_humidity;BME280_pressure;Samples;Min_cycle;Max_cycle;Signal;HPM_P1;HPM_P2
2022/01/27 00:05:20;;;;;;;30.63;15.82;;;;;;;3.24;89.23;102715.47;4951853;28;20148;-67
2022/01/27 00:08:07;;;;;;;30.75;14.25;;;;;;;3.21;89.37;102705.16;4951532;28;20023;-67
2022/01/27 00:12:58;;;;;;;35.55;16.75;;;;;;;3.24;89.52;102686.47;4954290;28;20511;-67
2022/01/27 00:15:30;;;;;;;33.28;15.80;;;;;;;3.25;89.30;102675.00;4954836;28;20082;-68
2022/01/27 00:18:00;;;;;;;30.85;14.65;;;;;;;3.25;89.31;102677.63;4954629;28;20089;-67
2022/01/27 00:20:26;;;;;;;29.50;15.45;;;;;;;3.24;88.92;102676.75;4954598;28;20438;-67
2022/01/27 00:22:51;;;;;;;28.48;13.70;;;;;;;3.25;88.92;102665.28;4954776;28;20027;-67
2022/01/27 00:25:17;;;;;;;32.67;16.15;;;;;;;3.25;89.18;102667.09;4954163;28;20070;-67
2022/01/27 00:27:42;;;;;;;31.92;15.10;;;;;;;3.26;88.68;102674.88;4954932;28;20063;-67
2022/01/27 00:30:09;;;;;;;32.83;15.35;;;;;;;3.27;88.82;102670.44;4954682;28;20067;-67
2022/01/27 00:32:35;;;;;;;32.05;15.73;;;;;;;3.25;88.67;102678.47;4937103;28;20082;-67
2022/01/27 00:35:01;;;;;;;30.95;16.45;;;;;;;3.24;88.68;102675.94;4954878;28;20061;-67
2022/01/27 00:37:27;;;;;;;33.03;17.80;;;;;;;3.25;88.68;102677.63;4936715;28;20121;-67
2022/01/27 00:39:53;;;;;;;31.55;14.50;;;;;;;3.26;89.08;102680.16;4953899;28;20193;-68
2022/01/27 00:42:18;;;;;;;36.67;16.35;;;;;;;3.27;88.65;102665.16;4953646;28;20035;-68
2022/01/27 00:44:43;;;;;;;29.45;14.40;;;;;;;3.29;88.75;102665.91;4954008;28;20031;-68
2022/01/27 00:47:09;;;;;;;33.60;15.02;;;;;;;3.29;88.91;102661.47;4954278;28;20034;-67
2022/01/27 00:49:36;;;;;;;34.50;17.20;;;;;;;3.29;88.91;102650.09;4937050;28;20122;-68
2022/01/27 00:52:03;;;;;;;31.40;16.83;;;;;;;3.31;88.66;102663.19;4954222;28;20403;-67
2022/01/27 00:54:29;;;;;;;33.00;16.42;;;;;;;3.32;88.59;102660.44;4954018;28;20384;-67
2022/01/27 01:02:16;;;;;;;32.03;15.53;;;;;;;3.33;88.81;102648.94;4954531;28;20482;-67
2022/01/27 01:04:46;;;;;;;32.63;16.42;;;;;;;3.36;88.51;102650.53;4940627;28;20341;-68
2022/01/27 01:07:12;;;;;;;32.78;15.43;;;;;;;3.37;88.43;102639.84;4953785;28;20474;-68
2022/01/27 01:18:23;;;;;;;39.67;16.00;;;;;;;3.41;88.39;102612.34;4953861;28;20082;-68
2022/01/27 01:20:34;;;;;;;27.58;13.57;;;;;;;3.38;88.21;102615.19;4943232;28;20027;-67
2022/01/27 01:33:56;;;;;;;28.27;12.77;;;;;;;3.44;88.30;102598.09;4953725;28;20494;-67
2022/01/27 01:36:35;;;;;;;28.70;13.27;;;;;;;3.47;88.37;102609.25;4953441;28;20046;-67
2022/01/27 01:39:01;;;;;;;30.92;13.70;;;;;;;3.46;88.18;102597.03;4953126;28;20417;-67
2022/01/27 01:41:26;;;;;;;29.75;14.05;;;;;;;3.45;88.27;102586.59;4953166;28;20041;-67
2022/01/27 01:43:52;;;;;;;32.25;13.50;;;;;;;3.48;88.77;102578.44;4953419;28;20039;-67
2022/01/27 01:46:17;;;;;;;28.77;13.52;;;;;;;3.48;88.27;102589.88;4953353;28;20110;-67
2022/01/27 01:48:43;;;;;;;29.27;14.02;;;;;;;3.50;88.77;102587.09;4953349;28;20390;-67
2022/01/27 01:51:08;;;;;;;26.20;13.30;;;;;;;3.50;88.30;102589.75;4953308;28;20027;-67
2022/01/27 01:53:33;;;;;;;32.08;12.88;;;;;;;3.53;88.62;102601.88;4953250;28;20035;-67
2022/01/27 01:55:59;;;;;;;26.30;13.32;;;;;;;3.53;88.13;102593.97;4935932;28;20035;-67
2022/01/27 01:58:24;;;;;;;29.67;12.43;;;;;;;3.51;88.30;102586.16;4958073;28;20043;-68
2022/01/27 02:00:50;;;;;;;28.25;12.13;;;;;;;3.55;88.47;102586.78;4952601;28;20023;-68
2022/01/27 02:03:15;;;;;;;29.33;15.15;;;;;;;3.57;87.80;102587.53;4971240;28;20390;-67
2022/01/27 02:05:47;;;;;;;26.30;13.10;;;;;;;3.57;88.00;102584.91;4971431;28;20058;-68
2022/01/27 02:19:08;;;;;;;28.65;13.68;;;;;;;3.60;88.17;102545.09;4971338;28;20042;-67
2022/01/27 02:21:43;;;;;;;30.13;14.52;;;;;;;3.61;87.76;102538.88;4971348;28;21147;-67
2022/01/27 02:24:08;;;;;;;30.25;14.02;;;;;;;3.61;88.15;102541.50;4971278;28;20026;-67
2022/01/27 02:26:33;;;;;;;29.73;13.55;;;;;;;3.55;88.27;102523.47;4970963;28;20525;-68
2022/01/27 02:28:59;;;;;;;29.77;15.82;;;;;;;3.60;87.65;102540.66;4971020;28;20051;-67
2022/01/27 02:31:24;;;;;;;28.70;14.35;;;;;;;3.66;87.88;102542.00;4970896;28;20031;-67
2022/01/27 02:34:00;;;;;;;31.95;14.20;;;;;;;3.59;88.00;102539.00;4953115;28;20035;-67
2022/01/27 02:36:26;;;;;;;30.42;14.30;;;;;;;3.64;87.77;102536.00;4970758;28;20393;-67
2022/01/27 02:38:52;;;;;;;27.13;15.60;;;;;;;3.65;87.86;102542.97;4970850;28;20394;-67
2022/01/27 02:41:21;;;;;;;28.90;14.18;;;;;;;3.64;88.18;102547.41;4970999;28;20050;-67
2022/01/27 02:43:47;;;;;;;27.02;12.48;;;;;;;3.64;88.18;102528.97;4970880;28;20030;-67
2022/01/27 02:46:21;;;;;;;27.33;13.90;;;;;;;3.66;88.01;102521.75;4970925;28;20057;-67
2022/01/27 02:48:47;;;;;;;29.05;14.25;;;;;;;3.67;88.03;102519.97;4970671;28;20038;-67
2022/01/27 02:51:12;;;;;;;28.92;12.85;;;;;;;3.66;88.24;102515.63;4970511;28;20234;-67
2022/01/27 02:53:38;;;;;;;30.75;13.35;;;;;;;3.68;88.06;102516.38;4970617;28;20118;-67
2022/01/27 02:56:03;;;;;;;28.70;13.27;;;;;;;3.69;88.12;102512.78;4970908;28;20163;-67
2022/01/27 02:58:29;;;;;;;31.05;13.57;;;;;;;3.68;88.11;102492.63;4970607;28;20027;-67
2022/01/27 03:00:54;;;;;;;30.90;14.00;;;;;;;3.71;88.33;102489.75;4970661;28;20524;-67
2022/01/27 03:03:19;;;;;;;31.05;12.63;;;;;;;3.70;88.60;102493.38;4970678;28;20039;-67
2022/01/27 03:05:45;;;;;;;27.85;11.50;;;;;;;3.71;87.87;102487.97;4970550;28;20030;-68
2022/01/27 03:08:10;;;;;;;32.80;14.63;;;;;;;3.71;88.57;102500.31;4970476;28;20105;-67
2022/01/27 03:10:39;;;;;;;27.13;12.95;;;;;;;3.71;88.53;102495.88;4970579;28;20394;-67
2022/01/27 03:13:05;;;;;;;26.95;12.90;;;;;;;3.72;88.54;102492.31;4970474;28;20512;-67
2022/01/27 03:15:30;;;;;;;28.98;13.07;;;;;;;3.71;88.91;102489.75;4970202;28;20039;-67
2022/01/27 03:17:56;;;;;;;26.50;11.65;;;;;;;3.74;88.64;102486.91;4970299;28;20022;-67
2022/01/27 03:20:21;;;;;;;31.40;16.20;;;;;;;3.73;88.67;102472.03;4970218;28;20074;-67
2022/01/27 03:22:47;;;;;;;26.15;11.32;;;;;;;3.72;88.97;102491.44;4970249;28;20034;-67
2022/01/27 03:25:12;;;;;;;26.35;11.50;;;;;;;3.69;88.79;102475.81;4951943;28;20031;-67
2022/01/27 03:27:44;;;;;;;27.48;12.15;;;;;;;3.70;88.97;102467.81;4951779;28;20039;-67
2022/01/27 03:30:10;;;;;;;24.75;10.43;;;;;;;3.71;88.72;102471.28;4951759;28;20244;-68
2022/01/27 03:32:36;;;;;;;29.30;13.32;;;;;;;3.66;88.73;102457.59;4951761;28;20403;-67
2022/01/27 03:35:01;;;;;;;25.48;11.05;;;;;;;3.68;89.05;102469.72;4951448;28;20220;-68
2022/01/27 03:37:26;;;;;;;27.90;15.63;;;;;;;3.73;88.78;102461.47;4951675;28;20371;-67
2022/01/27 03:39:52;;;;;;;27.98;11.23;;;;;;;3.70;88.81;102454.63;4951631;28;20035;-67
2022/01/27 03:42:17;;;;;;;26.65;11.77;;;;;;;3.73;88.99;102469.38;4951564;28;20023;-67
2022/01/27 03:44:42;;;;;;;29.65;13.98;;;;;;;3.76;89.21;102468.31;4951793;28;20050;-67
2022/01/27 03:47:08;;;;;;;25.98;13.23;;;;;;;3.77;89.13;102464.72;4954063;28;20393;-67
2022/01/27 03:49:33;;;;;;;27.38;12.73;;;;;;;3.79;88.95;102462.81;4955558;28;20042;-68
2022/01/27 03:52:01;;;;;;;27.20;12.73;;;;;;;3.78;88.92;102458.50;4955368;28;20031;-67
2022/01/27 03:54:27;;;;;;;27.70;13.35;;;;;;;3.78;89.50;102459.34;4955515;28;20379;-67
2022/01/27 03:56:52;;;;;;;25.15;12.25;;;;;;;3.80;89.22;102454.81;4955427;28;20077;-67
2022/01/27 03:59:18;;;;;;;28.75;12.32;;;;;;;3.80;88.98;102446.88;4955498;28;20079;-67
2022/01/27 04:01:43;;;;;;;27.83;13.85;;;;;;;3.81;89.36;102437.16;4955294;28;20035;-67
2022/01/27 04:04:09;;;;;;;28.80;14.52;;;;;;;3.74;89.45;102418.28;4955200;28;20020;-67
2022/01/27 04:06:39;;;;;;;31.63;14.65;;;;;;;3.72;89.28;102422.84;4937936;28;20031;-68
2022/01/27 04:09:06;;;;;;;27.67;12.45;;;;;;;3.65;89.61;102418.97;4955318;28;20051;-67
2022/01/27 04:11:32;;;;;;;31.17;13.20;;;;;;;3.63;90.04;102419.09;4937762;28;20544;-67
2022/01/27 04:13:58;;;;;;;28.52;13.77;;;;;;;3.59;90.07;102411.50;4954970;28;20139;-67
2022/01/27 04:16:23;;;;;;;26.73;13.15;;;;;;;3.61;90.04;102410.44;4937879;28;21069;-67
2022/01/27 04:18:49;;;;;;;24.90;10.93;;;;;;;3.63;90.08;102415.59;4954804;28;20027;-67
2022/01/27 04:21:15;;;;;;;28.77;14.30;;;;;;;3.61;90.16;102402.50;4960406;28;20027;-67
2022/01/27 04:23:40;;;;;;;27.50;12.55;;;;;;;3.57;90.51;102401.06;4972953;28;20055;-67
2022/01/27 04:26:07;;;;;;;27.90;10.68;;;;;;;3.56;90.58;102406.44;4973185;28;20605;-67
2022/01/27 04:28:35;;;;;;;30.77;14.13;;;;;;;3.46;90.82;102393.13;4973125;28;20375;-67
2022/01/27 04:31:03;;;;;;;25.35;11.75;;;;;;;3.47;90.68;102389.50;4973269;28;20466;-67
2022/01/27 04:33:31;;;;;;;27.65;12.50;;;;;;;3.45;90.93;102396.69;4973379;28;20050;-67
2022/01/27 04:36:00;;;;;;;30.90;10.63;;;;;;;3.44;91.07;102382.66;4973007;28;20110;-67
2022/01/27 04:38:35;;;;;;;25.27;11.40;;;;;;;3.42;91.45;102392.47;4973076;28;20410;-67
2022/01/27 04:51:28;;;;;;;29.70;12.50;;;;;;;3.33;91.94;102369.44;4959715;28;20043;-67
2022/01/27 04:54:08;;;;;;;30.75;13.68;;;;;;;3.30;92.14;102364.34;4955343;28;20035;-67
2022/01/27 04:56:36;;;;;;;27.20;10.40;;;;;;;3.33;91.83;102374.69;4972820;28;20054;-67
2022/01/27 04:59:08;;;;;;;26.73;11.52;;;;;;;3.34;92.40;102368.47;4972713;28;20031;-67
2022/01/27 05:01:39;;;;;;;28.77;13.02;;;;;;;3.34;92.43;102373.72;4972545;28;20347;-67
2022/01/27 05:04:11;;;;;;;;;;;;;;;3.34;91.75;102363.19;4973073;28;20035;-67
2022/01/27 05:06:37;;;;;;;;;;;;;;;3.31;91.41;102349.41;4955783;28;19924;-67
2022/01/27 05:09:03;;;;;;;30.33;11.63;;;;;;;3.29;92.08;102345.06;4972651;28;20013;-67
2022/01/27 05:11:33;;;;;;;25.45;10.23;;;;;;;3.25;92.62;102346.25;4972568;28;20030;-68
2022/01/27 05:16:29;;;;;;;26.70;11.80;;;;;;;3.26;92.87;102340.00;4972538;28;20042;-68
2022/01/27 05:18:55;;;;;;;26.65;13.90;;;;;;;3.29;93.21;102347.69;4972181;28;20509;-67
2022/01/27 05:21:21;;;;;;;25.17;11.00;;;;;;;3.31;92.77;102349.41;4972612;28;20022;-67
2022/01/27 05:23:47;;;;;;;30.33;11.98;;;;;;;3.38;93.01;102340.06;4954838;28;20037;-67
2022/01/27 05:26:12;;;;;;;25.70;11.15;;;;;;;3.40;92.67;102327.59;4972189;28;20042;-67
2022/01/27 05:28:38;;;;;;;27.65;12.13;;;;;;;3.44;93.07;102324.63;4954648;28;20027;-67
2022/01/27 05:31:05;;;;;;;29.85;10.80;;;;;;;3.50;93.03;102318.91;4972057;28;20066;-67
2022/01/27 05:33:31;;;;;;;27.67;12.57;;;;;;;3.58;92.46;102313.06;4972186;28;20030;-69
2022/01/27 05:35:56;;;;;;;29.17;12.85;;;;;;;3.63;92.59;102310.06;4972213;28;20033;-67
2022/01/27 05:38:21;;;;;;;25.58;12.73;;;;;;;3.72;91.70;102304.09;4938515;28;20580;-67
2022/01/27 05:40:47;;;;;;;27.15;10.50;;;;;;;3.73;91.99;102311.91;4972054;28;20045;-67
2022/01/27 05:43:13;;;;;;;27.15;11.60;;;;;;;3.78;92.56;102294.91;4954822;28;20972;-67
2022/01/27 05:45:39;;;;;;;24.88;11.55;;;;;;;3.82;92.33;102296.34;4971909;28;20034;-67
2022/01/27 05:48:04;;;;;;;27.95;11.00;;;;;;;3.76;92.14;102294.16;4971628;28;20474;-67
2022/01/27 05:50:31;;;;;;;23.33;10.95;;;;;;;3.89;92.00;102316.88;4954390;28;20030;-68
2022/01/27 05:52:56;;;;;;;25.70;11.57;;;;;;;3.89;92.09;102308.94;4971454;28;20065;-67
2022/01/27 05:55:21;;;;;;;24.88;10.48;;;;;;;3.94;91.95;102305.97;4971865;28;20153;-67
2022/01/27 05:57:47;;;;;;;31.83;12.15;;;;;;;3.96;91.74;102306.69;4954137;28;20035;-67
2022/01/27 06:00:12;;;;;;;29.23;12.43;;;;;;;3.99;91.58;102310.91;4971530;28;20031;-67
2022/01/27 06:02:38;;;;;;;26.00;11.00;;;;;;;4.02;92.16;102308.03;4964890;28;20049;-67
2022/01/27 06:05:04;;;;;;;26.67;13.07;;;;;;;4.03;91.51;102293.84;4952738;28;20435;-67
2022/01/27 06:07:30;;;;;;;33.63;11.77;;;;;;;4.05;91.69;102297.22;4952991;28;20419;-67
2022/01/27 06:09:56;;;;;;;25.70;10.18;;;;;;;4.04;91.89;102279.72;4952292;28;20101;-67
2022/01/27 06:12:22;;;;;;;27.98;10.85;;;;;;;4.06;92.47;102283.91;4952905;28;20078;-67
2022/01/27 06:14:47;;;;;;;27.27;11.45;;;;;;;4.08;92.71;102295.16;4935479;28;20419;-67
2022/01/27 06:17:13;;;;;;;28.08;12.32;;;;;;;4.05;93.18;102287.50;4935482;28;20130;-67
2022/01/27 06:19:38;;;;;;;26.83;11.23;;;;;;;4.07;93.20;102290.03;4952597;28;20089;-67
2022/01/27 06:22:11;;;;;;;27.60;11.73;;;;;;;4.00;93.95;102279.09;4952746;28;20031;-67
2022/01/27 06:24:38;;;;;;;28.98;12.45;;;;;;;3.99;94.08;102287.97;4935448;28;20439;-67
2022/01/27 06:27:04;;;;;;;24.55;9.30;;;;;;;3.98;94.87;102282.81;4952418;28;20046;-67
2022/01/27 06:29:29;;;;;;;25.38;10.95;;;;;;;3.98;94.97;102282.81;4952456;28;20059;-67
2022/01/27 06:31:54;;;;;;;24.80;9.68;;;;;;;3.98;94.99;102282.81;4952395;28;20039;-67
2022/01/27 06:34:20;;;;;;;27.08;12.38;;;;;;;3.96;94.70;102288.22;4935480;28;20399;-67
2022/01/27 06:36:45;;;;;;;26.50;12.80;;;;;;;3.87;95.02;102258.06;4952566;28;20379;-67
2022/01/27 06:39:10;;;;;;;27.75;11.77;;;;;;;4.00;94.84;102267.69;4935110;28;20043;-67
2022/01/27 06:41:36;;;;;;;28.20;12.20;;;;;;;3.93;95.29;102254.97;4952450;28;20034;-67
2022/01/27 06:44:02;;;;;;;26.08;13.00;;;;;;;4.02;95.03;102269.25;4952284;28;20102;-67
2022/01/27 06:46:28;;;;;;;25.15;11.00;;;;;;;4.06;94.86;102261.94;4952324;28;20035;-67
2022/01/27 06:48:53;;;;;;;26.77;11.93;;;;;;;4.06;94.95;102260.16;4952057;28;20050;-67
2022/01/27 06:51:18;;;;;;;26.77;10.65;;;;;;;4.06;95.08;102267.22;4952189;28;20051;-67
2022/01/27 06:53:44;;;;;;;27.92;12.30;;;;;;;4.05;95.04;102263.72;4958752;28;20050;-67
2022/01/27 06:56:09;;;;;;;31.10;11.38;;;;;;;4.01;95.17;102251.75;4952837;28;20117;-67
2022/01/27 06:58:36;;;;;;;28.45;12.88;;;;;;;4.09;95.17;102257.28;4970504;28;20062;-67
2022/01/27 07:01:02;;;;;;;27.10;12.05;;;;;;;4.10;95.47;102251.00;4970791;28;20390;-67
2022/01/27 07:03:27;;;;;;;31.88;11.82;;;;;;;4.13;95.19;102257.84;4970772;28;20022;-67
2022/01/27 07:05:52;;;;;;;32.92;15.05;;;;;;;4.16;95.25;102254.97;4970498;28;20041;-68
2022/01/27 07:08:18;;;;;;;26.15;12.20;;;;;;;4.17;95.09;102254.88;4953130;28;20043;-67
2022/01/27 07:10:43;;;;;;;24.70;10.65;;;;;;;4.19;95.51;102252.09;4970442;28;20046;-67
2022/01/27 07:13:08;;;;;;;30.88;13.07;;;;;;;4.21;95.44;102254.63;4970217;28;20112;-67
2022/01/27 07:15:34;;;;;;;22.85;10.10;;;;;;;4.24;94.93;102252.56;4970377;28;20371;-67
2022/01/27 07:17:59;;;;;;;28.15;13.32;;;;;;;4.23;95.47;102253.53;4970355;28;20390;-67
2022/01/27 07:20:24;;;;;;;25.65;12.38;;;;;;;4.26;95.02;102258.56;4970216;28;20069;-68
2022/01/27 07:22:50;;;;;;;26.00;11.93;;;;;;;4.25;94.64;102256.91;4970319;28;20087;-67
2022/01/27 07:25:15;;;;;;;30.92;12.35;;;;;;;4.29;95.25;102271.53;4970106;28;20486;-68
2022/01/27 07:27:41;;;;;;;26.17;12.00;;;;;;;4.32;95.30;102278.38;4952907;28;20390;-67
2022/01/27 07:30:07;;;;;;;29.95;13.50;;;;;;;4.34;95.06;102281.75;4970134;28;20089;-67
2022/01/27 07:32:32;;;;;;;25.77;11.07;;;;;;;4.35;94.74;102286.91;4970473;28;20031;-68
2022/01/27 07:34:58;;;;;;;27.70;12.18;;;;;;;4.34;94.85;102279.94;4970244;28;20624;-67
2022/01/27 07:37:23;;;;;;;28.65;12.80;;;;;;;4.32;94.85;102273.09;4952992;28;20125;-67
2022/01/27 07:39:49;;;;;;;30.38;12.70;;;;;;;4.39;94.65;102280.41;4970226;28;20382;-67
2022/01/27 07:42:14;;;;;;;25.05;10.90;;;;;;;4.36;94.49;102267.47;4970142;28;20035;-67
2022/01/27 07:44:39;;;;;;;27.73;11.63;;;;;;;4.20;94.63;102237.94;4970209;28;20033;-67
2022/01/27 07:47:05;;;;;;;29.52;12.77;;;;;;;4.46;94.65;102264.94;4952778;28;20039;-67
2022/01/27 07:49:30;;;;;;;27.30;12.60;;;;;;;4.42;95.39;102273.22;4952549;28;20066;-67
2022/01/27 07:51:56;;;;;;;26.23;12.02;;;;;;;4.44;96.02;102280.06;4969672;28;20041;-67
2022/01/27 07:54:22;;;;;;;28.63;13.30;;;;;;;4.38;96.79;102276.09;4970055;28;20082;-67
2022/01/27 07:56:47;;;;;;;30.88;13.27;;;;;;;4.35;97.30;102280.81;4952217;28;20043;-67
2022/01/27 07:59:13;;;;;;;27.77;12.95;;;;;;;4.35;97.61;102284.28;4969740;28;20062;-67
2022/01/27 08:01:39;;;;;;;31.52;14.02;;;;;;;4.34;97.73;102287.03;4970041;28;20426;-67
2022/01/27 08:04:04;;;;;;;26.65;12.95;;;;;;;4.33;98.59;102283.56;4970187;28;20038;-67
2022/01/27 08:06:29;;;;;;;28.30;12.65;;;;;;;4.33;98.73;102274.78;4969910;28;20080;-66
2022/01/27 08:08:55;;;;;;;27.80;14.00;;;;;;;4.33;98.79;102280.06;4970306;28;20031;-67
2022/01/27 08:11:20;;;;;;;29.52;13.55;;;;;;;4.30;99.31;102275.03;4969703;28;20038;-67
2022/01/27 08:13:45;;;;;;;31.58;13.63;;;;;;;4.29;99.66;102276.81;4970023;28;20038;-67
2022/01/27 08:16:11;;;;;;;27.38;15.25;;;;;;;4.29;99.76;102279.47;4969823;28;20509;-68
2022/01/27 08:18:36;;;;;;;29.73;14.23;;;;;;;4.27;100.00;102283.19;4969893;28;20120;-67
2022/01/27 08:21:02;;;;;;;31.38;13.23;;;;;;;4.23;100.00;102273.84;4952377;28;20390;-67
2022/01/27 08:23:28;;;;;;;34.30;16.15;;;;;;;4.26;100.00;102281.50;4969423;28;20042;-67
2022/01/27 08:26:03;;;;;;;27.85;14.10;;;;;;;4.25;100.00;102279.84;4969668;28;20498;-67
2022/01/27 08:28:35;;;;;;;28.42;14.40;;;;;;;4.23;100.00;102273.84;4969624;28;20042;-67
2022/01/27 08:31:02;;;;;;;33.17;15.02;;;;;;;4.26;100.00;102276.22;4969694;28;20062;-67
2022/01/27 08:33:29;;;;;;;34.40;15.30;;;;;;;4.27;100.00;102273.47;4972110;28;20146;-67
2022/01/27 08:35:57;;;;;;;34.67;14.05;;;;;;;4.28;100.00;102266.38;4973163;28;20405;-67
2022/01/27 08:38:22;;;;;;;29.83;14.60;;;;;;;4.28;100.00;102267.22;4973182;28;20035;-67
2022/01/27 08:40:47;;;;;;;29.60;14.07;;;;;;;4.31;100.00;102271.44;4972945;28;20444;-67
2022/01/27 08:43:13;;;;;;;32.03;15.05;;;;;;;4.32;100.00;102270.44;4972932;28;20062;-68
2022/01/27 08:45:39;;;;;;;31.08;13.68;;;;;;;4.33;100.00;102258.94;4972883;28;20497;-68
2022/01/27 08:48:06;;;;;;;28.10;13.98;;;;;;;4.35;100.00;102278.16;4955532;28;20533;-66
2022/01/27 08:50:32;;;;;;;34.17;13.43;;;;;;;4.36;100.00;102283.31;4954024;28;20040;-67
2022/01/27 08:52:58;;;;;;;33.78;15.18;;;;;;;4.38;100.00;102278.75;4954388;28;20031;-67
2022/01/27 08:55:23;;;;;;;32.58;15.25;;;;;;;4.40;100.00;102278.59;4954378;28;20387;-66
2022/01/27 08:57:49;;;;;;;33.80;17.55;;;;;;;4.36;100.00;102263.97;4954394;28;20070;-67
2022/01/27 09:00:16;;;;;;;30.65;13.20;;;;;;;4.47;100.00;102266.59;4954309;28;20497;-66
2022/01/27 09:02:41;;;;;;;31.05;13.73;;;;;;;4.50;100.00;102270.81;4954347;28;20038;-67
2022/01/27 09:05:07;;;;;;;29.40;13.38;;;;;;;4.53;100.00;102268.78;4954339;28;20041;-67
2022/01/27 09:07:34;;;;;;;32.60;17.17;;;;;;;4.53;100.00;102268.78;4954099;28;20494;-67
2022/01/27 09:09:59;;;;;;;31.02;13.85;;;;;;;4.58;100.00;102278.97;4954164;28;20023;-66
2022/01/27 09:12:24;;;;;;;30.33;14.20;;;;;;;4.55;100.00;102260.72;4954143;28;20038;-67
2022/01/27 09:14:50;;;;;;;32.13;16.73;;;;;;;4.61;100.00;102268.13;4936901;28;20125;-67
2022/01/27 09:17:15;;;;;;;31.33;15.43;;;;;;;4.64;100.00;102267.91;4954094;28;20411;-66
2022/01/27 09:19:44;;;;;;;37.90;17.05;;;;;;;4.66;100.00;102271.25;4953802;28;20043;-67
2022/01/27 09:22:15;;;;;;;27.33;14.02;;;;;;;4.68;100.00;102266.69;4949338;28;20026;-70
2022/01/27 09:25:20;;;;;;;30.40;13.88;;;;;;;4.70;100.00;102267.41;4948910;28;20027;-68
2022/01/27 09:27:33;;;;;;;29.10;14.23;;;;;;;4.74;100.00;102268.88;4946973;28;20047;-68
2022/01/27 09:29:59;;;;;;;29.88;15.63;;;;;;;4.76;100.00;102268.72;4949510;28;20062;-68
2022/01/27 09:32:26;;;;;;;30.85;14.60;;;;;;;4.77;100.00;102263.31;4949984;28;20070;-67
2022/01/27 09:34:52;;;;;;;32.05;15.40;;;;;;;4.79;100.00;102269.34;4949790;28;20015;-68
2022/01/27 09:37:17;;;;;;;30.75;15.23;;;;;;;4.77;100.00;102252.75;4949605;28;20035;-68
2022/01/27 09:39:43;;;;;;;29.67;14.70;;;;;;;4.82;100.00;102263.78;4931657;28;20502;-67
2022/01/27 09:42:09;;;;;;;27.08;12.18;;;;;;;4.82;100.00;102261.16;4931408;28;20033;-67
2022/01/27 09:44:36;;;;;;;29.42;15.40;;;;;;;4.89;100.00;102260.66;4948001;28;20634;-68
2022/01/27 09:47:08;;;;;;;25.67;12.95;;;;;;;4.89;100.00;102261.47;4949898;28;20490;-68
2022/01/27 09:49:42;;;;;;;30.02;14.80;;;;;;;4.93;100.00;102276.13;4949529;28;20149;-68
2022/01/27 09:52:07;;;;;;;27.25;13.18;;;;;;;4.95;100.00;102278.66;4949194;28;20042;-68
2022/01/27 09:54:34;;;;;;;29.92;15.30;;;;;;;4.96;100.00;102270.59;4949042;28;20023;-67
2022/01/27 09:56:59;;;;;;;27.50;15.85;;;;;;;4.95;100.00;102274.22;4949321;28;20050;-68
2022/01/27 09:59:26;;;;;;;28.52;14.13;;;;;;;4.96;100.00;102267.97;4948246;28;20479;-67
2022/01/27 10:01:53;;;;;;;27.20;14.70;;;;;;;5.05;100.00;102282.22;4948352;28;20023;-68
2022/01/27 10:04:18;;;;;;;27.75;12.68;;;;;;;5.07;100.00;102275.00;4949122;28;20019;-68
2022/01/27 10:06:45;;;;;;;25.38;11.63;;;;;;;5.03;100.00;102276.22;4948987;28;20509;-68
2022/01/27 10:09:19;;;;;;;33.33;15.23;;;;;;;5.08;100.00;102276.69;4949472;28;20046;-68
2022/01/27 10:11:48;;;;;;;25.77;12.77;;;;;;;5.06;100.00;102273.34;4948360;28;20035;-68
2022/01/27 10:14:22;;;;;;;25.58;12.35;;;;;;;5.10;100.00;102266.81;4949168;28;20174;-68
2022/01/27 10:16:50;;;;;;;25.20;12.73;;;;;;;5.11;100.00;102279.09;4949028;28;20367;-68
2022/01/27 10:19:17;;;;;;;28.30;12.13;;;;;;;5.13;100.00;102269.22;4955975;28;20016;-68
2022/01/27 10:21:42;;;;;;;23.27;11.73;;;;;;;5.13;100.00;102269.22;4948467;28;20058;-68
2022/01/27 10:24:29;;;;;;;27.55;12.18;;;;;;;5.16;100.00;102276.91;4930879;29;20562;-68
2022/01/27 10:27:18;;;;;;;23.45;11.35;;;;;;;5.19;100.00;102281.94;4948280;28;20526;-68
2022/01/27 10:32:42;;;;;;;23.05;12.13;;;;;;;5.23;100.00;102274.59;4948770;28;20126;-68
2022/01/27 10:35:09;;;;;;;24.42;11.25;;;;;;;5.23;100.00;102279.88;4948465;28;20050;-68
2022/01/27 10:38:00;;;;;;;26.77;11.80;;;;;;;5.24;100.00;102271.84;4948147;28;20110;-68
2022/01/27 10:40:35;;;;;;;24.05;11.85;;;;;;;5.25;100.00;102289.38;4948254;28;20022;-68
2022/01/27 10:43:15;;;;;;;22.50;10.13;;;;;;;5.27;100.00;102276.03;4948236;28;20450;-67
2022/01/27 10:46:27;;;;;;;20.60;11.73;;;;;;;5.30;100.00;102267.84;4948339;28;20106;-67
2022/01/27 10:51:30;;;;;;;22.08;9.95;;;;;;;5.36;100.00;102271.78;4948798;28;20038;-67
2022/01/27 10:54:03;;;;;;;21.23;9.85;;;;;;;5.40;100.00;102267.91;4948503;28;20027;-67
2022/01/27 10:56:31;;;;;;;21.15;9.85;;;;;;;5.43;100.00;102273.78;4947885;28;20158;-66
2022/01/27 10:58:58;;;;;;;21.88;11.20;;;;;;;5.48;100.00;102273.41;4948316;28;20027;-67
2022/01/27 11:01:26;;;;;;;20.10;9.23;;;;;;;5.40;100.00;102262.63;4947886;28;20054;-65
2022/01/27 11:03:53;;;;;;;21.30;9.88;;;;;;;5.56;100.00;102280.72;4948098;28;20034;-67
2022/01/27 11:06:23;;;;;;;20.40;9.43;;;;;;;5.59;100.00;102278.63;4948620;28;20015;-67
2022/01/27 11:08:48;;;;;;;21.88;8.85;;;;;;;5.62;100.00;102262.50;4948403;28;20422;-66
2022/01/27 11:11:14;;;;;;;20.20;11.13;;;;;;;5.65;100.00;102256.94;4947224;28;20027;-67
2022/01/27 11:13:43;;;;;;;27.63;11.05;;;;;;;5.69;100.00;102271.59;4947817;28;20449;-67
2022/01/27 11:16:12;;;;;;;17.50;8.10;;;;;;;5.73;100.00;102258.94;4948617;28;20027;-67
2022/01/27 11:18:38;;;;;;;19.08;9.02;;;;;;;5.76;100.00;102249.88;4948232;28;20076;-68
2022/01/27 11:21:11;;;;;;;18.98;10.07;;;;;;;5.79;100.00;102250.50;4948063;28;20023;-68
2022/01/27 11:26:07;;;;;;;18.90;9.85;;;;;;;5.87;100.00;102247.19;4947649;28;20047;-68
2022/01/27 11:28:33;;;;;;;24.13;10.70;;;;;;;5.90;100.00;102237.16;4948293;28;20031;-69
2022/01/27 11:31:41;;;;;;;20.20;9.48;;;;;;;5.96;100.00;102241.13;4947826;28;20047;-68
2022/01/27 11:34:10;;;;;;;18.50;9.10;;;;;;;5.90;100.00;102221.28;4943184;28;20039;-68
2022/01/27 11:36:38;;;;;;;17.48;8.77;;;;;;;6.02;100.00;102229.16;4948068;28;20737;-68
2022/01/27 11:39:09;;;;;;;21.70;7.63;;;;;;;6.03;100.00;102229.03;4947849;28;20035;-68
2022/01/27 11:41:39;;;;;;;19.80;9.52;;;;;;;6.08;100.00;102218.06;4947984;28;20027;-69
2022/01/27 11:44:32;;;;;;;22.35;10.68;;;;;;;6.10;100.00;102222.25;4947611;28;20027;-69
2022/01/27 11:47:11;;;;;;;24.40;11.73;;;;;;;6.12;100.00;102227.38;4948251;28;20031;-69
2022/01/27 11:49:47;;;;;;;18.02;8.75;;;;;;;6.12;100.00;102219.44;4929917;28;20043;-68
2022/01/27 11:52:19;;;;;;;18.80;8.63;;;;;;;6.14;100.00;102217.50;4946798;28;20102;-68
2022/01/27 11:54:45;;;;;;;19.30;8.13;;;;;;;6.15;100.00;102214.72;4947377;28;20051;-68
2022/01/27 11:57:37;;;;;;;21.67;9.00;;;;;;;6.18;100.00;102212.78;4947163;28;20102;-68
2022/01/27 12:00:11;;;;;;;14.38;7.18;;;;;;;6.19;100.00;102217.94;4948057;28;20032;-68
2022/01/27 12:02:55;;;;;;;18.90;8.95;;;;;;;6.19;100.00;102214.47;4947075;28;20054;-67
2022/01/27 12:05:21;;;;;;;19.10;8.60;;;;;;;6.19;100.00;102207.34;4947871;28;20038;-68
2022/01/27 12:08:14;;;;;;;20.65;8.25;;;;;;;6.22;100.00;102208.88;4949439;28;20043;-68
2022/01/27 12:10:49;;;;;;;19.38;8.52;;;;;;;6.20;100.00;102216.13;4951356;28;20035;-68
2022/01/27 12:13:24;;;;;;;18.55;8.93;;;;;;;6.22;100.00;102212.38;4950646;28;20359;-68
2022/01/27 12:16:25;;;;;;;20.60;8.15;;;;;;;6.23;100.00;102219.34;4951260;28;20099;-68
2022/01/27 12:18:59;;;;;;;17.65;8.45;;;;;;;6.26;100.00;102205.84;4951443;28;20027;-68
2022/01/27 12:21:51;;;;;;;17.17;7.97;;;;;;;6.29;100.00;102208.22;4951070;28;20600;-68
2022/01/27 12:24:28;;;;;;;21.88;8.27;;;;;;;6.32;100.00;102196.50;4947462;28;20126;-69